sensor_id;sensor_type;location;lat;lon;timestamp;P1;durP1;ratioP1;P2;durP2;ratioP2
52692;SDS011;68218;51.012;-1.648;2023-02-28T00:00:47;14.20;;;3.75;;
52692;SDS011;68218;51.012;-1.648;2023-02-28T00:03:12;16.48;;;3.55;;
52692;SDS011;68218;51.012;-1.648;2023-02-28T00:05:38;10.98;;;3.35;;
52692;SDS011;68218;51.012;-1.648;2023-02-28T00:08:04;11.52;;;2.90;;
52692;SDS011;68218;51.012;-1.648;2023-02-28T00:10:30;11.05;;;3.20;;
52692;SDS011;68218;51.012;-1.648;2023-02-28T00:13:03;14.52;;;3.40;;
52692;SDS011;68218;51.012;-1.648;2023-02-28T00:15:30;10.02;;;2.95;;
52692;SDS011;68218;51.012;-1.648;2023-02-28T00:20:21;13.85;;;3.53;;
52692;SDS011;68218;51.012;-1.648;2023-02-28T00:22:48;10.73;;;2.78;;
52692;SDS011;68218;51.012;-1.648;2023-02-28T00:25:16;10.95;;;2.20;;
52692;SDS011;68218;51.012;-1.648;2023-02-28T00:27:43;11.07;;;2.60;;
52692;SDS011;68218;51.012;-1.648;2023-02-28T00:32:39;9.65;;;2.50;;
52692;SDS011;68218;51.012;-1.648;2023-02-28T00:35:04;11.75;;;2.55;;
52692;SDS011;68218;51.012;-1.648;2023-02-28T00:37:31;11.82;;;2.70;;
52692;SDS011;68218;51.012;-1.648;2023-02-28T00:39:56;8.25;;;2.47;;
52692;SDS011;68218;51.012;-1.648;2023-02-28T00:42:22;9.35;;;2.47;;
52692;SDS011;68218;51.012;-1.648;2023-02-28T00:47:13;9.27;;;2.60;;
52692;SDS011;68218;51.012;-1.648;2023-02-28T00:49:39;12.35;;;3.08;;
52692;SDS011;68218;51.012;-1.648;2023-02-28T00:52:04;9.88;;;2.45;;
52692;SDS011;68218;51.012;-1.648;2023-02-28T00:54:30;11.52;;;2.80;;
52692;SDS011;68218;51.012;-1.648;2023-02-28T00:56:55;13.63;;;3.17;;
52692;SDS011;68218;51.012;-1.648;2023-02-28T00:59:20;9.77;;;2.72;;
52692;SDS011;68218;51.012;-1.648;2023-02-28T01:01:46;12.65;;;3.03;;
52692;SDS011;68218;51.012;-1.648;2023-02-28T01:04:13;11.73;;;3.03;;
52692;SDS011;68218;51.012;-1.648;2023-02-28T01:06:39;11.77;;;2.88;;
52692;SDS011;68218;51.012;-1.648;2023-02-28T01:09:04;9.15;;;2.58;;
52692;SDS011;68218;51.012;-1.648;2023-02-28T01:11:31;12.52;;;2.92;;
52692;SDS011;68218;51.012;-1.648;2023-02-28T01:13:57;12.77;;;2.40;;
52692;SDS011;68218;51.012;-1.648;2023-02-28T01:16:23;15.00;;;3.13;;
52692;SDS011;68218;51.012;-1.648;2023-02-28T01:18:49;7.65;;;2.30;;
52692;SDS011;68218;51.012;-1.648;2023-02-28T01:21:16;12.57;;;3.25;;
52692;SDS011;68218;51.012;-1.648;2023-02-28T01:23:42;17.45;;;2.65;;
52692;SDS011;68218;51.012;-1.648;2023-02-28T01:26:15;13.13;;;3.00;;
52692;SDS011;68218;51.012;-1.648;2023-02-28T01:28:42;8.75;;;2.53;;
52692;SDS011;68218;51.012;-1.648;2023-02-28T01:31:08;13.13;;;2.90;;
52692;SDS011;68218;51.012;-1.648;2023-02-28T01:36:00;18.17;;;3.22;;
52692;SDS011;68218;51.012;-1.648;2023-02-28T01:38:33;13.73;;;2.80;;
52692;SDS011;68218;51.012;-1.648;2023-02-28T01:40:59;17.65;;;3.10;;
52692;SDS011;68218;51.012;-1.648;2023-02-28T01:43:29;11.13;;;2.92;;
52692;SDS011;68218;51.012;-1.648;2023-02-28T01:45:57;12.60;;;3.38;;
52692;SDS011;68218;51.012;-1.648;2023-02-28T01:48:29;8.95;;;2.90;;
52692;SDS011;68218;51.012;-1.648;2023-02-28T01:50:59;10.57;;;2.75;;
52692;SDS011;68218;51.012;-1.648;2023-02-28T01:53:32;14.07;;;2.97;;
52692;SDS011;68218;51.012;-1.648;2023-02-28T01:56:02;12.40;;;3.00;;
52692;SDS011;68218;51.012;-1.648;2023-02-28T01:58:31;18.15;;;3.20;;
52692;SDS011;68218;51.012;-1.648;2023-02-28T02:00:56;14.57;;;2.95;;
52692;SDS011;68218;51.012;-1.648;2023-02-28T02:03:22;14.32;;;3.13;;
52692;SDS011;68218;51.012;-1.648;2023-02-28T02:05:49;13.43;;;2.80;;
52692;SDS011;68218;51.012;-1.648;2023-02-28T02:08:32;18.40;;;3.10;;
52692;SDS011;68218;51.012;-1.648;2023-02-28T02:10:59;9.82;;;2.47;;
52692;SDS011;68218;51.012;-1.648;2023-02-28T02:21:56;11.40;;;3.00;;
52692;SDS011;68218;51.012;-1.648;2023-02-28T02:24:46;17.17;;;3.22;;
52692;SDS011;68218;51.012;-1.648;2023-02-28T02:35:56;15.23;;;3.25;;
52692;SDS011;68218;51.012;-1.648;2023-02-28T02:43:54;12.73;;;4.07;;
52692;SDS011;68218;51.012;-1.648;2023-02-28T02:46:34;13.25;;;3.17;;
52692;SDS011;68218;51.012;-1.648;2023-02-28T02:49:05;15.98;;;4.40;;
52692;SDS011;68218;51.012;-1.648;2023-02-28T02:51:34;20.30;;;5.07;;
52692;SDS011;68218;51.012;-1.648;2023-02-28T02:54:05;21.95;;;4.53;;
52692;SDS011;68218;51.012;-1.648;2023-02-28T02:56:44;23.60;;;5.15;;
52692;SDS011;68218;51.012;-1.648;2023-02-28T02:59:12;16.10;;;4.15;;
52692;SDS011;68218;51.012;-1.648;2023-02-28T03:01:46;18.55;;;4.80;;
52692;SDS011;68218;51.012;-1.648;2023-02-28T03:04:18;14.48;;;4.15;;
52692;SDS011;68218;51.012;-1.648;2023-02-28T03:06:45;23.63;;;4.00;;
52692;SDS011;68218;51.012;-1.648;2023-02-28T03:09:10;23.70;;;4.45;;
52692;SDS011;68218;51.012;-1.648;2023-02-28T03:11:36;17.60;;;4.47;;
52692;SDS011;68218;51.012;-1.648;2023-02-28T03:22:07;20.92;;;4.97;;
52692;SDS011;68218;51.012;-1.648;2023-02-28T03:25:03;17.77;;;4.85;;
52692;SDS011;68218;51.012;-1.648;2023-02-28T03:30:51;21.85;;;5.35;;
52692;SDS011;68218;51.012;-1.648;2023-02-28T03:38:29;19.48;;;6.05;;
52692;SDS011;68218;51.012;-1.648;2023-02-28T03:41:10;20.77;;;5.63;;
52692;SDS011;68218;51.012;-1.648;2023-02-28T03:43:41;25.23;;;6.53;;
52692;SDS011;68218;51.012;-1.648;2023-02-28T03:46:10;29.27;;;6.70;;
52692;SDS011;68218;51.012;-1.648;2023-02-28T03:48:44;19.05;;;6.13;;
52692;SDS011;68218;51.012;-1.648;2023-02-28T03:51:17;22.67;;;7.38;;
52692;SDS011;68218;51.012;-1.648;2023-02-28T03:53:47;18.27;;;6.05;;
52692;SDS011;68218;51.012;-1.648;2023-02-28T03:56:25;24.90;;;6.55;;
52692;SDS011;68218;51.012;-1.648;2023-02-28T03:59:04;28.65;;;7.32;;
52692;SDS011;68218;51.012;-1.648;2023-02-28T04:01:39;23.13;;;6.35;;
52692;SDS011;68218;51.012;-1.648;2023-02-28T04:04:10;28.60;;;7.07;;
52692;SDS011;68218;51.012;-1.648;2023-02-28T04:06:37;22.95;;;6.97;;
52692;SDS011;68218;51.012;-1.648;2023-02-28T04:09:03;27.08;;;7.20;;
52692;SDS011;68218;51.012;-1.648;2023-02-28T04:11:34;23.17;;;7.53;;
52692;SDS011;68218;51.012;-1.648;2023-02-28T04:14:01;19.40;;;8.20;;
52692;SDS011;68218;51.012;-1.648;2023-02-28T04:16:27;27.67;;;7.63;;
52692;SDS011;68218;51.012;-1.648;2023-02-28T04:18:53;26.77;;;9.02;;
52692;SDS011;68218;51.012;-1.648;2023-02-28T04:21:18;31.60;;;8.88;;
52692;SDS011;68218;51.012;-1.648;2023-02-28T04:23:47;27.75;;;8.52;;
52692;SDS011;68218;51.012;-1.648;2023-02-28T04:26:12;35.20;;;9.77;;
52692;SDS011;68218;51.012;-1.648;2023-02-28T04:28:38;25.15;;;9.25;;
52692;SDS011;68218;51.012;-1.648;2023-02-28T04:31:04;29.58;;;9.65;;
52692;SDS011;68218;51.012;-1.648;2023-02-28T04:33:30;32.03;;;10.32;;
52692;SDS011;68218;51.012;-1.648;2023-02-28T04:36:00;32.03;;;11.00;;
52692;SDS011;68218;51.012;-1.648;2023-02-28T04:38:33;25.05;;;9.52;;
52692;SDS011;68218;51.012;-1.648;2023-02-28T04:41:02;30.17;;;10.30;;
52692;SDS011;68218;51.012;-1.648;2023-02-28T04:43:28;28.08;;;10.27;;
52692;SDS011;68218;51.012;-1.648;2023-02-28T04:45:54;25.00;;;9.95;;
52692;SDS011;68218;51.012;-1.648;2023-02-28T04:48:24;36.03;;;10.90;;
52692;SDS011;68218;51.012;-1.648;2023-02-28T04:50:52;22.52;;;9.52;;
52692;SDS011;68218;51.012;-1.648;2023-02-28T04:53:17;27.60;;;11.40;;
52692;SDS011;68218;51.012;-1.648;2023-02-28T04:55:43;22.70;;;10.15;;
52692;SDS011;68218;51.012;-1.648;2023-02-28T04:58:08;31.00;;;12.98;;
52692;SDS011;68218;51.012;-1.648;2023-02-28T05:00:34;29.10;;;10.68;;
52692;SDS011;68218;51.012;-1.648;2023-02-28T05:03:00;26.67;;;10.27;;
52692;SDS011;68218;51.012;-1.648;2023-02-28T05:05:25;24.30;;;11.10;;
52692;SDS011;68218;51.012;-1.648;2023-02-28T05:07:51;32.00;;;11.80;;
52692;SDS011;68218;51.012;-1.648;2023-02-28T05:10:18;23.83;;;11.88;;
52692;SDS011;68218;51.012;-1.648;2023-02-28T05:12:44;31.08;;;12.35;;
52692;SDS011;68218;51.012;-1.648;2023-02-28T05:15:12;30.55;;;11.48;;
52692;SDS011;68218;51.012;-1.648;2023-02-28T05:17:38;28.95;;;11.63;;
52692;SDS011;68218;51.012;-1.648;2023-02-28T05:20:04;41.95;;;13.05;;
52692;SDS011;68218;51.012;-1.648;2023-02-28T05:22:30;31.15;;;12.05;;
52692;SDS011;68218;51.012;-1.648;2023-02-28T05:27:22;33.83;;;12.65;;
52692;SDS011;68218;51.012;-1.648;2023-02-28T05:29:48;25.75;;;11.23;;
52692;SDS011;68218;51.012;-1.648;2023-02-28T05:32:13;33.50;;;12.05;;
52692;SDS011;68218;51.012;-1.648;2023-02-28T05:34:39;22.52;;;10.45;;
52692;SDS011;68218;51.012;-1.648;2023-02-28T05:37:05;34.40;;;12.68;;
52692;SDS011;68218;51.012;-1.648;2023-02-28T05:39:35;23.45;;;11.13;;
52692;SDS011;68218;51.012;-1.648;2023-02-28T05:42:01;30.70;;;10.77;;
52692;SDS011;68218;51.012;-1.648;2023-02-28T05:44:26;28.20;;;10.73;;
52692;SDS011;68218;51.012;-1.648;2023-02-28T05:46:52;22.92;;;10.65;;
52692;SDS011;68218;51.012;-1.648;2023-02-28T05:49:17;26.40;;;10.77;;
52692;SDS011;68218;51.012;-1.648;2023-02-28T05:51:42;27.05;;;11.00;;
52692;SDS011;68218;51.012;-1.648;2023-02-28T05:54:08;23.73;;;10.40;;
52692;SDS011;68218;51.012;-1.648;2023-02-28T05:56:33;26.60;;;10.35;;
52692;SDS011;68218;51.012;-1.648;2023-02-28T05:59:00;23.67;;;10.23;;
52692;SDS011;68218;51.012;-1.648;2023-02-28T06:01:33;27.60;;;9.20;;
52692;SDS011;68218;51.012;-1.648;2023-02-28T06:04:00;23.25;;;9.57;;
52692;SDS011;68218;51.012;-1.648;2023-02-28T06:06:28;28.38;;;9.07;;
52692;SDS011;68218;51.012;-1.648;2023-02-28T06:08:54;22.85;;;9.52;;
52692;SDS011;68218;51.012;-1.648;2023-02-28T06:11:20;24.98;;;9.80;;
52692;SDS011;68218;51.012;-1.648;2023-02-28T06:13:46;30.80;;;9.85;;
52692;SDS011;68218;51.012;-1.648;2023-02-28T06:16:11;25.75;;;9.52;;
52692;SDS011;68218;51.012;-1.648;2023-02-28T06:18:37;22.60;;;9.05;;
52692;SDS011;68218;51.012;-1.648;2023-02-28T06:23:28;23.73;;;9.40;;
52692;SDS011;68218;51.012;-1.648;2023-02-28T06:25:54;31.17;;;9.50;;
52692;SDS011;68218;51.012;-1.648;2023-02-28T06:28:23;23.45;;;9.23;;
52692;SDS011;68218;51.012;-1.648;2023-02-28T06:33:14;20.83;;;8.43;;
52692;SDS011;68218;51.012;-1.648;2023-02-28T06:35:39;23.95;;;9.77;;
52692;SDS011;68218;51.012;-1.648;2023-02-28T06:38:08;29.13;;;9.32;;
52692;SDS011;68218;51.012;-1.648;2023-02-28T06:40:33;25.73;;;9.57;;
52692;SDS011;68218;51.012;-1.648;2023-02-28T06:43:00;23.52;;;10.02;;
52692;SDS011;68218;51.012;-1.648;2023-02-28T06:45:26;25.95;;;9.30;;
52692;SDS011;68218;51.012;-1.648;2023-02-28T06:47:51;19.15;;;8.88;;
52692;SDS011;68218;51.012;-1.648;2023-02-28T06:50:17;21.25;;;8.93;;
52692;SDS011;68218;51.012;-1.648;2023-02-28T06:52:44;29.50;;;9.48;;
52692;SDS011;68218;51.012;-1.648;2023-02-28T06:55:10;20.98;;;8.98;;
52692;SDS011;68218;51.012;-1.648;2023-02-28T06:57:35;18.83;;;8.02;;
52692;SDS011;68218;51.012;-1.648;2023-02-28T07:00:03;19.05;;;8.07;;
52692;SDS011;68218;51.012;-1.648;2023-02-28T07:02:34;21.40;;;8.63;;
52692;SDS011;68218;51.012;-1.648;2023-02-28T07:05:00;22.58;;;8.50;;
52692;SDS011;68218;51.012;-1.648;2023-02-28T07:07:26;26.77;;;7.72;;
52692;SDS011;68218;51.012;-1.648;2023-02-28T07:09:51;20.20;;;7.93;;
52692;SDS011;68218;51.012;-1.648;2023-02-28T07:12:16;18.98;;;6.72;;
52692;SDS011;68218;51.012;-1.648;2023-02-28T07:14:42;23.88;;;7.32;;
52692;SDS011;68218;51.012;-1.648;2023-02-28T07:17:08;20.45;;;6.50;;
52692;SDS011;68218;51.012;-1.648;2023-02-28T07:19:35;22.77;;;7.80;;
52692;SDS011;68218;51.012;-1.648;2023-02-28T07:22:01;18.40;;;7.30;;
52692;SDS011;68218;51.012;-1.648;2023-02-28T07:24:27;19.67;;;7.13;;
52692;SDS011;68218;51.012;-1.648;2023-02-28T07:26:54;15.63;;;5.97;;
52692;SDS011;68218;51.012;-1.648;2023-02-28T07:29:20;24.10;;;7.03;;
52692;SDS011;68218;51.012;-1.648;2023-02-28T07:31:45;18.23;;;6.53;;
52692;SDS011;68218;51.012;-1.648;2023-02-28T07:34:11;18.83;;;6.53;;
52692;SDS011;68218;51.012;-1.648;2023-02-28T07:39:03;16.70;;;5.82;;
52692;SDS011;68218;51.012;-1.648;2023-02-28T07:41:29;15.88;;;6.45;;
52692;SDS011;68218;51.012;-1.648;2023-02-28T07:43:57;16.48;;;6.05;;
52692;SDS011;68218;51.012;-1.648;2023-02-28T07:46:24;18.33;;;6.20;;
52692;SDS011;68218;51.012;-1.648;2023-02-28T07:51:16;18.88;;;5.50;;
52692;SDS011;68218;51.012;-1.648;2023-02-28T07:53:42;16.23;;;5.88;;
52692;SDS011;68218;51.012;-1.648;2023-02-28T07:56:07;16.10;;;5.53;;
52692;SDS011;68218;51.012;-1.648;2023-02-28T07:58:33;16.73;;;5.30;;
52692;SDS011;68218;51.012;-1.648;2023-02-28T08:01:06;15.57;;;5.00;;
52692;SDS011;68218;51.012;-1.648;2023-02-28T08:03:32;14.90;;;5.55;;
52692;SDS011;68218;51.012;-1.648;2023-02-28T08:05:58;16.77;;;5.72;;
52692;SDS011;68218;51.012;-1.648;2023-02-28T08:08:23;14.38;;;5.30;;
52692;SDS011;68218;51.012;-1.648;2023-02-28T08:10:53;17.02;;;4.82;;
52692;SDS011;68218;51.012;-1.648;2023-02-28T08:13:18;15.63;;;5.57;;
52692;SDS011;68218;51.012;-1.648;2023-02-28T08:15:44;14.02;;;5.60;;
52692;SDS011;68218;51.012;-1.648;2023-02-28T08:18:10;13.93;;;5.25;;
52692;SDS011;68218;51.012;-1.648;2023-02-28T08:20:36;19.83;;;5.63;;
52692;SDS011;68218;51.012;-1.648;2023-02-28T08:23:01;12.98;;;5.20;;
52692;SDS011;68218;51.012;-1.648;2023-02-28T08:25:27;17.15;;;5.78;;
52692;SDS011;68218;51.012;-1.648;2023-02-28T08:27:52;14.60;;;5.50;;
52692;SDS011;68218;51.012;-1.648;2023-02-28T08:30:18;17.73;;;5.57;;
52692;SDS011;68218;51.012;-1.648;2023-02-28T08:32:43;15.55;;;5.35;;
52692;SDS011;68218;51.012;-1.648;2023-02-28T08:35:08;15.57;;;5.40;;
52692;SDS011;68218;51.012;-1.648;2023-02-28T08:37:34;13.50;;;4.72;;
52692;SDS011;68218;51.012;-1.648;2023-02-28T08:42:25;13.52;;;4.80;;
52692;SDS011;68218;51.012;-1.648;2023-02-28T08:44:50;13.88;;;5.07;;
52692;SDS011;68218;51.012;-1.648;2023-02-28T08:47:16;15.18;;;5.18;;
52692;SDS011;68218;51.012;-1.648;2023-02-28T08:49:41;13.13;;;5.50;;
52692;SDS011;68218;51.012;-1.648;2023-02-28T08:52:07;14.35;;;5.40;;
52692;SDS011;68218;51.012;-1.648;2023-02-28T08:54:32;16.30;;;4.97;;
52692;SDS011;68218;51.012;-1.648;2023-02-28T08:56:59;14.05;;;5.10;;
52692;SDS011;68218;51.012;-1.648;2023-02-28T08:59:24;13.43;;;4.80;;
52692;SDS011;68218;51.012;-1.648;2023-02-28T09:01:50;11.70;;;4.75;;
52692;SDS011;68218;51.012;-1.648;2023-02-28T09:06:41;17.13;;;4.65;;
52692;SDS011;68218;51.012;-1.648;2023-02-28T09:09:06;15.27;;;4.90;;
52692;SDS011;68218;51.012;-1.648;2023-02-28T09:13:58;17.17;;;5.05;;
52692;SDS011;68218;51.012;-1.648;2023-02-28T09:16:25;12.13;;;4.68;;
52692;SDS011;68218;51.012;-1.648;2023-02-28T09:18:51;14.23;;;5.10;;
52692;SDS011;68218;51.012;-1.648;2023-02-28T09:21:17;13.82;;;5.07;;
52692;SDS011;68218;51.012;-1.648;2023-02-28T09:23:44;15.30;;;5.30;;
52692;SDS011;68218;51.012;-1.648;2023-02-28T09:26:21;13.38;;;4.72;;
52692;SDS011;68218;51.012;-1.648;2023-02-28T09:28:51;14.52;;;5.43;;
52692;SDS011;68218;51.012;-1.648;2023-02-28T09:31:19;14.23;;;5.30;;
52692;SDS011;68218;51.012;-1.648;2023-02-28T09:33:51;12.98;;;4.90;;
52692;SDS011;68218;51.012;-1.648;2023-02-28T09:36:18;12.82;;;5.22;;
52692;SDS011;68218;51.012;-1.648;2023-02-28T09:38:45;13.77;;;5.10;;
52692;SDS011;68218;51.012;-1.648;2023-02-28T09:43:43;13.77;;;5.57;;
52692;SDS011;68218;51.012;-1.648;2023-02-28T09:46:15;15.50;;;5.90;;
52692;SDS011;68218;51.012;-1.648;2023-02-28T09:48:45;12.70;;;5.10;;
52692;SDS011;68218;51.012;-1.648;2023-02-28T09:54:17;14.07;;;5.47;;
52692;SDS011;68218;51.012;-1.648;2023-02-28T09:59:54;14.90;;;5.82;;
52692;SDS011;68218;51.012;-1.648;2023-02-28T10:02:38;15.73;;;6.50;;
52692;SDS011;68218;51.012;-1.648;2023-02-28T10:05:13;16.27;;;6.85;;
52692;SDS011;68218;51.012;-1.648;2023-02-28T10:10:29;17.55;;;6.95;;
52692;SDS011;68218;51.012;-1.648;2023-02-28T10:13:02;16.27;;;6.22;;
52692;SDS011;68218;51.012;-1.648;2023-02-28T10:15:31;17.67;;;6.95;;
52692;SDS011;68218;51.012;-1.648;2023-02-28T10:18:02;15.40;;;5.70;;
52692;SDS011;68218;51.012;-1.648;2023-02-28T10:20:36;14.18;;;5.15;;
52692;SDS011;68218;51.012;-1.648;2023-02-28T10:23:10;14.35;;;5.70;;
52692;SDS011;68218;51.012;-1.648;2023-02-28T10:25:42;12.05;;;4.50;;
52692;SDS011;68218;51.012;-1.648;2023-02-28T10:28:21;12.63;;;4.65;;
52692;SDS011;68218;51.012;-1.648;2023-02-28T10:33:32;10.65;;;3.60;;
52692;SDS011;68218;51.012;-1.648;2023-02-28T10:35:59;6.97;;;2.40;;
52692;SDS011;68218;51.012;-1.648;2023-02-28T10:38:44;6.35;;;2.30;;
52692;SDS011;68218;51.012;-1.648;2023-02-28T10:41:14;7.05;;;2.70;;
52692;SDS011;68218;51.012;-1.648;2023-02-28T10:43:53;8.15;;;2.55;;
52692;SDS011;68218;51.012;-1.648;2023-02-28T10:46:39;8.18;;;2.20;;
52692;SDS011;68218;51.012;-1.648;2023-02-28T10:49:13;6.53;;;2.30;;
52692;SDS011;68218;51.012;-1.648;2023-02-28T10:51:42;9.43;;;2.33;;
52692;SDS011;68218;51.012;-1.648;2023-02-28T10:57:34;13.90;;;3.03;;
52692;SDS011;68218;51.012;-1.648;2023-02-28T10:59:40;11.52;;;4.03;;
52692;SDS011;68218;51.012;-1.648;2023-02-28T11:04:54;10.00;;;2.90;;
52692;SDS011;68218;51.012;-1.648;2023-02-28T11:07:21;9.93;;;3.15;;
52692;SDS011;68218;51.012;-1.648;2023-02-28T11:09:50;9.23;;;3.17;;
52692;SDS011;68218;51.012;-1.648;2023-02-28T11:14:49;9.15;;;3.78;;
52692;SDS011;68218;51.012;-1.648;2023-02-28T11:17:21;9.73;;;3.35;;
52692;SDS011;68218;51.012;-1.648;2023-02-28T11:19:49;10.75;;;3.70;;
52692;SDS011;68218;51.012;-1.648;2023-02-28T11:22:18;11.65;;;4.28;;
52692;SDS011;68218;51.012;-1.648;2023-02-28T11:24:47;14.07;;;4.32;;
52692;SDS011;68218;51.012;-1.648;2023-02-28T11:29:57;10.35;;;3.38;;
52692;SDS011;68218;51.012;-1.648;2023-02-28T11:32:27;8.23;;;2.90;;
52692;SDS011;68218;51.012;-1.648;2023-02-28T11:35:13;8.65;;;2.80;;
52692;SDS011;68218;51.012;-1.648;2023-02-28T11:37:48;10.82;;;2.90;;
52692;SDS011;68218;51.012;-1.648;2023-02-28T11:42:47;10.00;;;2.13;;
52692;SDS011;68218;51.012;-1.648;2023-02-28T11:48:32;8.30;;;2.53;;
52692;SDS011;68218;51.012;-1.648;2023-02-28T12:10:24;5.20;;;1.80;;
52692;SDS011;68218;51.012;-1.648;2023-02-28T12:26:44;6.30;;;2.22;;
52692;SDS011;68218;51.012;-1.648;2023-02-28T12:29:12;5.07;;;2.13;;
52692;SDS011;68218;51.012;-1.648;2023-02-28T12:31:41;5.55;;;2.10;;
52692;SDS011;68218;51.012;-1.648;2023-02-28T12:34:13;6.95;;;2.28;;
52692;SDS011;68218;51.012;-1.648;2023-02-28T12:36:45;8.38;;;2.50;;
52692;SDS011;68218;51.012;-1.648;2023-02-28T12:39:14;8.32;;;2.50;;
52692;SDS011;68218;51.012;-1.648;2023-02-28T12:41:54;8.68;;;2.83;;
52692;SDS011;68218;51.012;-1.648;2023-02-28T12:47:04;10.10;;;3.30;;
52692;SDS011;68218;51.012;-1.648;2023-02-28T12:49:36;9.77;;;2.80;;
52692;SDS011;68218;51.012;-1.648;2023-02-28T12:52:07;8.20;;;2.80;;
52692;SDS011;68218;51.012;-1.648;2023-02-28T12:59:40;9.90;;;3.97;;
52692;SDS011;68218;51.012;-1.648;2023-02-28T13:07:54;9.65;;;3.47;;
52692;SDS011;68218;51.012;-1.648;2023-02-28T13:10:39;9.18;;;3.35;;
52692;SDS011;68218;51.012;-1.648;2023-02-28T13:13:13;10.85;;;3.95;;
52692;SDS011;68218;51.012;-1.648;2023-02-28T13:15:41;9.63;;;3.38;;
52692;SDS011;68218;51.012;-1.648;2023-02-28T13:18:30;9.93;;;3.47;;
52692;SDS011;68218;51.012;-1.648;2023-02-28T13:21:02;8.07;;;3.00;;
52692;SDS011;68218;51.012;-1.648;2023-02-28T13:26:09;9.27;;;3.40;;
52692;SDS011;68218;51.012;-1.648;2023-02-28T13:31:19;9.70;;;3.15;;
52692;SDS011;68218;51.012;-1.648;2023-02-28T13:38:50;9.98;;;3.15;;
52692;SDS011;68218;51.012;-1.648;2023-02-28T13:44:16;11.73;;;3.90;;
52692;SDS011;68218;51.012;-1.648;2023-02-28T13:51:51;10.02;;;3.50;;
52692;SDS011;68218;51.012;-1.648;2023-02-28T13:54:27;14.50;;;3.97;;
52692;SDS011;68218;51.012;-1.648;2023-02-28T14:05:44;10.75;;;3.60;;
52692;SDS011;68218;51.012;-1.648;2023-02-28T14:10:46;12.10;;;3.97;;
52692;SDS011;68218;51.012;-1.648;2023-02-28T14:16:01;12.60;;;4.40;;
52692;SDS011;68218;51.012;-1.648;2023-02-28T14:18:32;12.02;;;4.45;;
52692;SDS011;68218;51.012;-1.648;2023-02-28T14:26:37;11.52;;;4.32;;
52692;SDS011;68218;51.012;-1.648;2023-02-28T14:32:19;12.27;;;4.45;;
52692;SDS011;68218;51.012;-1.648;2023-02-28T14:37:38;11.18;;;4.18;;
52692;SDS011;68218;51.012;-1.648;2023-02-28T14:40:21;11.30;;;4.10;;
52692;SDS011;68218;51.012;-1.648;2023-02-28T14:42:59;14.23;;;4.78;;
52692;SDS011;68218;51.012;-1.648;2023-02-28T14:45:28;11.77;;;4.43;;
52692;SDS011;68218;51.012;-1.648;2023-02-28T14:47:55;15.07;;;4.45;;
52692;SDS011;68218;51.012;-1.648;2023-02-28T14:50:32;14.23;;;4.40;;
52692;SDS011;68218;51.012;-1.648;2023-02-28T14:52:59;10.93;;;3.97;;
52692;SDS011;68218;51.012;-1.648;2023-02-28T14:55:28;13.50;;;4.47;;
52692;SDS011;68218;51.012;-1.648;2023-02-28T15:00:31;10.95;;;3.78;;
52692;SDS011;68218;51.012;-1.648;2023-02-28T15:03:17;11.93;;;4.38;;
52692;SDS011;68218;51.012;-1.648;2023-02-28T15:05:54;12.13;;;4.35;;
52692;SDS011;68218;51.012;-1.648;2023-02-28T15:08:22;11.02;;;4.18;;
52692;SDS011;68218;51.012;-1.648;2023-02-28T15:13:19;12.18;;;4.25;;
52692;SDS011;68218;51.012;-1.648;2023-02-28T15:16:01;10.75;;;3.88;;
52692;SDS011;68218;51.012;-1.648;2023-02-28T15:21:07;11.23;;;4.10;;
52692;SDS011;68218;51.012;-1.648;2023-02-28T15:23:37;11.68;;;4.03;;
52692;SDS011;68218;51.012;-1.648;2023-02-28T15:26:06;10.55;;;3.80;;
52692;SDS011;68218;51.012;-1.648;2023-02-28T15:30:59;12.82;;;4.38;;
52692;SDS011;68218;51.012;-1.648;2023-02-28T15:33:27;12.70;;;4.18;;
52692;SDS011;68218;51.012;-1.648;2023-02-28T15:36:04;11.40;;;4.10;;
52692;SDS011;68218;51.012;-1.648;2023-02-28T15:38:40;10.68;;;3.90;;
52692;SDS011;68218;51.012;-1.648;2023-02-28T15:41:20;11.45;;;4.22;;
52692;SDS011;68218;51.012;-1.648;2023-02-28T15:44:13;12.93;;;3.95;;
52692;SDS011;68218;51.012;-1.648;2023-02-28T15:46:54;11.40;;;4.22;;
52692;SDS011;68218;51.012;-1.648;2023-02-28T15:49:23;12.38;;;4.43;;
52692;SDS011;68218;51.012;-1.648;2023-02-28T15:54:20;13.10;;;4.45;;
52692;SDS011;68218;51.012;-1.648;2023-02-28T15:56:52;17.83;;;5.10;;
52692;SDS011;68218;51.012;-1.648;2023-02-28T15:59:24;16.52;;;6.07;;
52692;SDS011;68218;51.012;-1.648;2023-02-28T16:05:00;12.63;;;4.28;;
52692;SDS011;68218;51.012;-1.648;2023-02-28T16:07:35;17.67;;;7.05;;
52692;SDS011;68218;51.012;-1.648;2023-02-28T16:10:02;13.70;;;5.60;;
52692;SDS011;68218;51.012;-1.648;2023-02-28T16:12:30;19.17;;;9.00;;
52692;SDS011;68218;51.012;-1.648;2023-02-28T16:15:01;14.73;;;6.63;;
52692;SDS011;68218;51.012;-1.648;2023-02-28T16:17:32;12.88;;;5.47;;
52692;SDS011;68218;51.012;-1.648;2023-02-28T16:20:00;15.57;;;5.30;;
52692;SDS011;68218;51.012;-1.648;2023-02-28T16:24:51;17.88;;;8.00;;
52692;SDS011;68218;51.012;-1.648;2023-02-28T16:27:18;16.75;;;7.10;;
52692;SDS011;68218;51.012;-1.648;2023-02-28T16:29:50;13.00;;;5.47;;
52692;SDS011;68218;51.012;-1.648;2023-02-28T16:34:42;12.73;;;4.40;;
52692;SDS011;68218;51.012;-1.648;2023-02-28T16:37:12;11.23;;;3.53;;
52692;SDS011;68218;51.012;-1.648;2023-02-28T16:39:41;8.13;;;3.10;;
52692;SDS011;68218;51.012;-1.648;2023-02-28T16:42:11;7.15;;;2.80;;
52692;SDS011;68218;51.012;-1.648;2023-02-28T16:44:41;8.10;;;3.03;;
52692;SDS011;68218;51.012;-1.648;2023-02-28T16:49:34;9.75;;;2.95;;
52692;SDS011;68218;51.012;-1.648;2023-02-28T16:51:59;7.68;;;2.83;;
52692;SDS011;68218;51.012;-1.648;2023-02-28T16:56:50;12.10;;;4.60;;
52692;SDS011;68218;51.012;-1.648;2023-02-28T16:59:17;12.95;;;4.72;;
52692;SDS011;68218;51.012;-1.648;2023-02-28T17:01:47;13.68;;;4.50;;
52692;SDS011;68218;51.012;-1.648;2023-02-28T17:06:39;12.52;;;3.55;;
52692;SDS011;68218;51.012;-1.648;2023-02-28T17:11:33;11.80;;;4.68;;
52692;SDS011;68218;51.012;-1.648;2023-02-28T17:16:31;9.80;;;3.75;;
52692;SDS011;68218;51.012;-1.648;2023-02-28T17:18:59;7.95;;;3.22;;
52692;SDS011;68218;51.012;-1.648;2023-02-28T17:21:27;11.63;;;2.92;;
52692;SDS011;68218;51.012;-1.648;2023-02-28T17:26:18;10.32;;;3.88;;
52692;SDS011;68218;51.012;-1.648;2023-02-28T17:28:49;10.75;;;3.45;;
52692;SDS011;68218;51.012;-1.648;2023-02-28T17:31:20;10.43;;;3.72;;
52692;SDS011;68218;51.012;-1.648;2023-02-28T17:33:46;10.18;;;3.70;;
52692;SDS011;68218;51.012;-1.648;2023-02-28T17:38:42;13.80;;;5.47;;
52692;SDS011;68218;51.012;-1.648;2023-02-28T17:43:37;12.93;;;5.10;;
52692;SDS011;68218;51.012;-1.648;2023-02-28T17:48:30;12.80;;;4.90;;
52692;SDS011;68218;51.012;-1.648;2023-02-28T17:50:55;11.93;;;4.80;;
52692;SDS011;68218;51.012;-1.648;2023-02-28T17:55:48;9.80;;;3.72;;
52692;SDS011;68218;51.012;-1.648;2023-02-28T17:58:14;11.07;;;4.32;;
52692;SDS011;68218;51.012;-1.648;2023-02-28T18:03:05;12.63;;;4.63;;
52692;SDS011;68218;51.012;-1.648;2023-02-28T18:07:56;12.43;;;4.78;;
52692;SDS011;68218;51.012;-1.648;2023-02-28T18:10:22;11.40;;;4.57;;
52692;SDS011;68218;51.012;-1.648;2023-02-28T18:15:13;11.40;;;4.25;;
52692;SDS011;68218;51.012;-1.648;2023-02-28T18:17:39;12.40;;;3.75;;
52692;SDS011;68218;51.012;-1.648;2023-02-28T18:22:31;10.65;;;3.53;;
52692;SDS011;68218;51.012;-1.648;2023-02-28T18:27:22;9.57;;;3.38;;
52692;SDS011;68218;51.012;-1.648;2023-02-28T18:29:47;9.30;;;3.55;;
52692;SDS011;68218;51.012;-1.648;2023-02-28T18:32:15;11.80;;;3.42;;
52692;SDS011;68218;51.012;-1.648;2023-02-28T18:37:05;8.93;;;3.67;;
52692;SDS011;68218;51.012;-1.648;2023-02-28T18:41:57;8.90;;;3.45;;
52692;SDS011;68218;51.012;-1.648;2023-02-28T18:46:48;10.15;;;3.42;;